Time;durP1;ratioP1;P1;durP2;ratioP2;P2;SDS_P1;SDS_P2;PMS_P1;PMS_P2;Temp;Humidity;BMP_temperature;BMP_pressure;BME280_temperature;BME280_humidity;BME280_pressure;Samples;Min_cycle;Max_cycle;Signal;HPM_P1;HPM_P2
2023/08/13 00:01:21;;;;;;;2.70;2.50;;;22.20;99.90;;;;;;5015652;28;20232;-73
2023/08/13 00:03:47;;;;;;;3.80;2.57;;;22.30;99.90;;;;;;5019651;28;20249;-73
2023/08/13 00:06:12;;;;;;;3.43;2.47;;;22.30;99.90;;;;;;5001871;28;20884;-73
2023/08/13 00:08:38;;;;;;;2.73;2.53;;;22.20;99.90;;;;;;5017654;28;20342;-73
2023/08/13 00:11:11;;;;;;;6.37;2.53;;;22.10;99.90;;;;;;4999010;28;20218;-73
2023/08/13 00:13:41;;;;;;;3.10;2.47;;;22.20;99.90;;;;;;5001803;28;20220;-73
2023/08/13 00:16:07;;;;;;;2.60;2.23;;;22.20;99.90;;;;;;4998277;28;20466;-73
2023/08/13 00:18:34;;;;;;;2.47;2.20;;;22.10;99.90;;;;;;5020740;28;20533;-73
2023/08/13 00:20:59;;;;;;;2.23;2.07;;;22.10;99.90;;;;;;5017777;28;20454;-73
2023/08/13 00:23:26;;;;;;;2.33;2.20;;;22.20;99.90;;;;;;5019027;28;20683;-73
2023/08/13 00:25:51;;;;;;;2.40;2.20;;;22.30;99.90;;;;;;5018952;28;20227;-73
2023/08/13 00:28:17;;;;;;;2.90;2.37;;;22.30;99.90;;;;;;5002561;28;20589;-74
2023/08/13 00:30:43;;;;;;;2.60;2.40;;;22.30;99.90;;;;;;5000000;28;20230;-73
2023/08/13 00:33:08;;;;;;;1.90;1.80;;;22.30;99.90;;;;;;4982914;28;20776;-73
2023/08/13 00:35:34;;;;;;;2.57;2.30;;;22.40;99.90;;;;;;5020160;28;20251;-73
2023/08/13 00:38:00;;;;;;;3.37;3.07;;;22.30;99.90;;;;;;5000994;28;20230;-73
2023/08/13 00:40:27;;;;;;;4.50;2.37;;;22.30;99.90;;;;;;5019474;28;20315;-73
2023/08/13 00:42:53;;;;;;;2.50;2.10;;;22.30;99.90;;;;;;5000907;28;20519;-73
2023/08/13 00:45:20;;;;;;;2.27;1.90;;;22.30;99.90;;;;;;5033733;28;20481;-73
2023/08/13 00:47:47;;;;;;;3.10;2.33;;;22.30;99.90;;;;;;5020835;28;20471;-73
2023/08/13 00:50:13;;;;;;;2.90;2.60;;;22.30;99.90;;;;;;5037302;28;20463;-73
2023/08/13 00:52:40;;;;;;;2.10;2.00;;;22.30;99.90;;;;;;5020283;28;20460;-73
2023/08/13 00:55:06;;;;;;;2.87;2.20;;;22.30;99.90;;;;;;5018746;28;20591;-73
2023/08/13 00:57:32;;;;;;;6.20;2.00;;;22.20;99.90;;;;;;5006985;28;20909;-73
2023/08/13 00:59:59;;;;;;;1.73;1.63;;;21.90;99.90;;;;;;5014478;28;20477;-73
2023/08/13 01:02:24;;;;;;;2.67;2.47;;;21.70;99.90;;;;;;5001516;28;20229;-73
2023/08/13 01:04:50;;;;;;;2.20;2.00;;;21.80;99.90;;;;;;5036879;28;20463;-74
2023/08/13 01:07:31;;;;;;;3.50;2.27;;;21.80;99.90;;;;;;5018988;28;20251;-73
2023/08/13 01:10:33;;;;;;;2.80;2.30;;;21.70;99.90;;;;;;5001643;28;20231;-73
2023/08/13 01:13:28;;;;;;;2.37;2.00;;;21.70;99.90;;;;;;5019338;28;20670;-73
2023/08/13 01:15:56;;;;;;;3.00;2.70;;;21.80;99.90;;;;;;5017095;28;20484;-73
2023/08/13 01:18:22;;;;;;;2.60;2.40;;;21.70;99.90;;;;;;5025310;28;20466;-73
2023/08/13 01:20:48;;;;;;;2.60;2.40;;;21.40;99.90;;;;;;5009130;28;20473;-73
2023/08/13 01:23:13;;;;;;;3.60;3.00;;;21.40;99.90;;;;;;5021444;28;20671;-73
2023/08/13 01:25:51;;;;;;;2.70;2.30;;;21.60;99.90;;;;;;5004997;28;20340;-73
2023/08/13 01:28:29;;;;;;;2.37;2.17;;;21.80;99.90;;;;;;5004671;28;20232;-73
2023/08/13 01:31:01;;;;;;;6.83;2.40;;;21.80;99.90;;;;;;5003976;28;20468;-73
2023/08/13 01:33:33;;;;;;;2.20;2.00;;;21.80;99.90;;;;;;5018644;28;20470;-73
2023/08/13 01:36:01;;;;;;;4.00;2.20;;;21.80;99.90;;;;;;5003072;28;20976;-73
2023/08/13 01:38:28;;;;;;;2.67;2.47;;;21.80;99.90;;;;;;5019293;28;20461;-73
2023/08/13 01:40:56;;;;;;;2.27;2.10;;;21.90;99.90;;;;;;5021404;28;20474;-73
2023/08/13 01:43:22;;;;;;;2.53;2.37;;;21.90;99.90;;;;;;5017554;28;20557;-73
2023/08/13 01:45:49;;;;;;;2.20;2.00;;;21.90;99.90;;;;;;5021842;28;20652;-73
2023/08/13 01:48:15;;;;;;;2.37;2.17;;;21.90;99.90;;;;;;5004699;28;20462;-73
2023/08/13 01:50:41;;;;;;;4.20;2.57;;;21.90;99.90;;;;;;5004502;28;20236;-73
2023/08/13 01:53:07;;;;;;;3.60;2.30;;;21.90;99.90;;;;;;5022063;28;20227;-73
2023/08/13 01:55:32;;;;;;;2.63;2.43;;;21.80;99.90;;;;;;5005582;28;20239;-73
2023/08/13 01:57:58;;;;;;;2.73;2.53;;;21.80;99.90;;;;;;5019734;28;20764;-73
2023/08/13 02:00:24;;;;;;;2.60;2.33;;;21.80;99.90;;;;;;5021357;28;20223;-73
2023/08/13 02:02:49;;;;;;;2.83;2.60;;;21.80;99.90;;;;;;5037317;28;20268;-73
2023/08/13 02:05:15;;;;;;;2.43;2.23;;;21.80;99.90;;;;;;5004924;28;20263;-72
2023/08/13 02:07:41;;;;;;;2.83;2.63;;;21.80;99.90;;;;;;5019523;28;20234;-73
2023/08/13 02:10:07;;;;;;;2.43;2.20;;;21.80;99.90;;;;;;5004907;28;20939;-73
2023/08/13 02:12:32;;;;;;;5.70;2.43;;;21.80;99.90;;;;;;5001139;28;20693;-73
2023/08/13 02:14:58;;;;;;;3.10;2.63;;;21.80;99.90;;;;;;5022570;28;20259;-73
2023/08/13 02:17:24;;;;;;;3.10;2.50;;;21.80;99.90;;;;;;5018805;28;20781;-73
2023/08/13 02:19:49;;;;;;;2.77;2.57;;;21.70;99.90;;;;;;5020170;28;20319;-73
2023/08/13 02:22:15;;;;;;;2.37;2.17;;;21.70;99.90;;;;;;5001017;28;20254;-73
2023/08/13 02:24:41;;;;;;;2.00;1.90;;;21.70;99.90;;;;;;5004603;28;20306;-73
2023/08/13 02:27:06;;;;;;;2.97;2.53;;;21.70;99.90;;;;;;5020222;28;20944;-73
2023/08/13 02:29:32;;;;;;;5.13;2.50;;;21.60;99.90;;;;;;5001079;28;20234;-73
2023/08/13 02:31:58;;;;;;;2.60;2.40;;;21.60;99.90;;;;;;5002745;28;20586;-73
2023/08/13 02:34:23;;;;;;;2.70;2.30;;;21.70;99.90;;;;;;4990582;28;20258;-73
2023/08/13 02:36:50;;;;;;;2.13;2.03;;;21.60;99.90;;;;;;5005173;28;20336;-73
2023/08/13 02:39:16;;;;;;;2.20;2.00;;;21.60;99.90;;;;;;5020549;28;20351;-73
2023/08/13 02:41:42;;;;;;;2.47;2.13;;;21.60;99.90;;;;;;5020938;28;20465;-73
2023/08/13 02:44:09;;;;;;;2.00;1.90;;;21.50;99.90;;;;;;5019110;28;20346;-73
2023/08/13 02:46:34;;;;;;;3.73;2.87;;;21.50;99.90;;;;;;5021895;28;20462;-73
2023/08/13 02:49:00;;;;;;;2.10;2.00;;;21.60;99.90;;;;;;5038904;28;20286;-73
2023/08/13 02:51:26;;;;;;;2.40;2.20;;;21.50;99.90;;;;;;5012794;28;20235;-72
2023/08/13 02:53:52;;;;;;;2.53;2.33;;;21.50;99.90;;;;;;5019138;28;20227;-74
2023/08/13 02:56:19;;;;;;;2.30;2.10;;;21.50;99.90;;;;;;5021849;28;20481;-74
2023/08/13 02:58:45;;;;;;;3.43;2.93;;;21.50;99.90;;;;;;5005506;28;20613;-73
2023/08/13 03:01:11;;;;;;;2.40;2.20;;;21.50;99.90;;;;;;5002046;28;20470;-74
2023/08/13 03:03:37;;;;;;;2.60;2.40;;;21.50;99.90;;;;;;5005172;28;20227;-73
2023/08/13 03:06:02;;;;;;;1.93;1.80;;;21.50;99.90;;;;;;5004883;28;20470;-74
2023/08/13 03:08:28;;;;;;;2.40;2.20;;;21.50;99.90;;;;;;5003177;28;20961;-74
2023/08/13 03:10:54;;;;;;;2.20;2.10;;;21.50;99.90;;;;;;5019386;28;20346;-73
2023/08/13 03:13:19;;;;;;;2.10;1.90;;;21.50;99.90;;;;;;5003889;28;20697;-73
2023/08/13 03:15:46;;;;;;;2.07;1.90;;;21.50;99.90;;;;;;5003906;28;20285;-74
2023/08/13 03:18:12;;;;;;;2.70;2.37;;;21.40;99.90;;;;;;5002404;28;20986;-74
2023/08/13 03:20:41;;;;;;;1.90;1.80;;;21.40;99.90;;;;;;4987475;28;20589;-74
2023/08/13 03:23:07;;;;;;;3.10;2.30;;;21.40;99.90;;;;;;5000225;28;21020;-75
2023/08/13 03:25:33;;;;;;;3.00;2.40;;;21.50;99.90;;;;;;4985523;28;20236;-73
2023/08/13 03:27:58;;;;;;;4.63;2.67;;;21.50;99.90;;;;;;5004414;28;20246;-74
2023/08/13 03:30:26;;;;;;;3.37;2.60;;;21.40;99.90;;;;;;4999392;28;20224;-74
2023/08/13 03:32:52;;;;;;;3.63;2.77;;;21.40;99.90;;;;;;5004094;28;20556;-73
2023/08/13 03:35:22;;;;;;;4.30;3.30;;;21.40;99.90;;;;;;5003620;28;20232;-74
2023/08/13 03:37:48;;;;;;;2.47;2.27;;;21.40;99.90;;;;;;5006513;28;20545;-73
2023/08/13 03:40:16;;;;;;;3.50;2.50;;;21.40;99.90;;;;;;5017219;28;20473;-73
2023/08/13 03:42:42;;;;;;;3.03;2.73;;;21.30;99.90;;;;;;5018509;28;20518;-73
2023/08/13 03:45:08;;;;;;;2.13;2.03;;;21.30;99.90;;;;;;5036796;28;20930;-73
2023/08/13 03:47:35;;;;;;;4.57;3.00;;;21.30;99.90;;;;;;5037988;28;20247;-73
2023/08/13 03:50:01;;;;;;;3.93;2.70;;;21.30;99.90;;;;;;5019239;28;20470;-72
2023/08/13 03:52:30;;;;;;;2.83;2.50;;;21.30;99.90;;;;;;4993716;28;20216;-72
2023/08/13 03:54:56;;;;;;;3.27;2.90;;;21.30;99.90;;;;;;5039735;28;21121;-72
2023/08/13 03:57:22;;;;;;;3.00;2.70;;;21.30;99.90;;;;;;5020316;28;20525;-72
2023/08/13 03:59:47;;;;;;;2.50;1.97;;;21.30;99.90;;;;;;5000670;28;20319;-73
2023/08/13 04:02:14;;;;;;;2.03;1.93;;;21.20;99.90;;;;;;4983639;28;20215;-73
2023/08/13 04:04:40;;;;;;;2.73;2.50;;;21.20;99.90;;;;;;5034664;28;20473;-73
2023/08/13 04:07:06;;;;;;;2.50;2.30;;;21.20;99.90;;;;;;5003971;28;20224;-73
2023/08/13 04:09:32;;;;;;;2.30;2.10;;;21.20;99.90;;;;;;4993186;28;20465;-73
2023/08/13 04:11:58;;;;;;;2.70;2.33;;;21.20;99.90;;;;;;5013733;28;20305;-73
2023/08/13 04:14:24;;;;;;;2.50;2.30;;;21.20;99.90;;;;;;4993878;28;20475;-73
2023/08/13 04:16:49;;;;;;;3.10;2.20;;;21.20;99.90;;;;;;4996934;28;20874;-73
2023/08/13 04:19:16;;;;;;;3.20;2.60;;;21.10;99.90;;;;;;4993277;28;20298;-73
2023/08/13 04:21:42;;;;;;;3.07;1.90;;;21.10;99.90;;;;;;4997976;28;20512;-73
2023/08/13 04:24:10;;;;;;;2.50;2.20;;;21.10;99.90;;;;;;4993038;28;20250;-73
2023/08/13 04:26:35;;;;;;;3.13;2.43;;;21.10;99.90;;;;;;4998278;28;20478;-71
2023/08/13 04:29:03;;;;;;;2.40;2.03;;;21.10;99.90;;;;;;4994488;28;20223;-73
2023/08/13 04:31:28;;;;;;;2.77;2.53;;;21.10;99.90;;;;;;4979229;28;20516;-73
2023/08/13 04:33:54;;;;;;;4.60;2.33;;;21.00;99.90;;;;;;4994962;28;20215;-73
2023/08/13 04:36:20;;;;;;;2.80;2.30;;;21.00;99.90;;;;;;5001160;28;20545;-72
2023/08/13 04:38:46;;;;;;;1.70;1.60;;;21.00;99.90;;;;;;5003909;28;20234;-73
2023/08/13 04:41:11;;;;;;;1.87;1.77;;;21.00;99.90;;;;;;5000212;28;20223;-72
2023/08/13 04:43:41;;;;;;;2.37;2.00;;;21.00;99.90;;;;;;5002781;28;20347;-72
2023/08/13 04:46:06;;;;;;;2.27;1.90;;;21.00;99.90;;;;;;4989709;28;20469;-73
2023/08/13 04:48:45;;;;;;;1.80;1.70;;;21.00;99.90;;;;;;5003992;28;20259;-73
2023/08/13 04:51:12;;;;;;;2.43;2.20;;;21.00;99.90;;;;;;4997532;28;20473;-73
2023/08/13 04:53:38;;;;;;;2.43;2.23;;;21.00;99.90;;;;;;5001414;28;20550;-73
2023/08/13 04:56:08;;;;;;;3.63;2.30;;;21.00;99.90;;;;;;4998275;28;20501;-73
2023/08/13 04:58:35;;;;;;;2.10;2.00;;;20.90;99.90;;;;;;5002175;28;20569;-72
2023/08/13 05:01:02;;;;;;;3.43;2.10;;;20.90;99.90;;;;;;4999773;28;20458;-72
2023/08/13 05:03:28;;;;;;;2.93;2.60;;;20.90;99.90;;;;;;5024171;28;20473;-72
2023/08/13 05:05:54;;;;;;;2.33;2.07;;;20.90;99.90;;;;;;5022316;28;20712;-73
2023/08/13 05:08:20;;;;;;;2.00;1.90;;;20.90;99.90;;;;;;5020172;28;20219;-72
2023/08/13 05:10:47;;;;;;;1.80;1.70;;;20.90;99.90;;;;;;5021450;28;20575;-72
2023/08/13 05:13:16;;;;;;;2.23;2.03;;;20.80;99.90;;;;;;5037218;28;20731;-73
2023/08/13 05:15:42;;;;;;;5.70;2.27;;;20.80;99.90;;;;;;5023187;28;20235;-73
2023/08/13 05:18:08;;;;;;;2.23;1.73;;;20.80;99.90;;;;;;5035918;28;20499;-73
2023/08/13 05:20:34;;;;;;;2.23;2.03;;;20.80;99.90;;;;;;5021926;28;20753;-73
2023/08/13 05:23:01;;;;;;;2.13;1.80;;;20.90;99.90;;;;;;5022052;28;20235;-72
2023/08/13 05:25:28;;;;;;;2.90;2.47;;;20.90;99.90;;;;;;5017428;28;20480;-73
2023/08/13 05:27:54;;;;;;;2.77;2.33;;;20.90;99.90;;;;;;5020063;28;20227;-72
2023/08/13 05:30:20;;;;;;;2.17;1.93;;;20.90;99.90;;;;;;5000521;28;20588;-73
2023/08/13 05:32:46;;;;;;;3.63;2.17;;;20.90;99.90;;;;;;4995438;28;20232;-72
2023/08/13 05:35:13;;;;;;;1.90;1.80;;;20.90;99.90;;;;;;5018214;28;20469;-73
2023/08/13 05:37:39;;;;;;;5.70;2.53;;;20.90;99.90;;;;;;5003504;28;20493;-72
2023/08/13 05:40:08;;;;;;;2.70;2.50;;;20.90;99.90;;;;;;5017401;28;20463;-73
2023/08/13 05:42:35;;;;;;;2.13;1.93;;;20.80;99.90;;;;;;5020475;28;20223;-73
2023/08/13 05:45:01;;;;;;;2.93;2.73;;;20.70;99.90;;;;;;5021929;28;20951;-73
2023/08/13 05:47:26;;;;;;;2.90;2.57;;;20.70;99.90;;;;;;4995752;28;20262;-72
2023/08/13 05:49:53;;;;;;;2.40;2.20;;;20.80;99.90;;;;;;5001988;28;20220;-72
2023/08/13 05:52:19;;;;;;;3.13;2.60;;;20.70;99.90;;;;;;4996538;28;20470;-73
2023/08/13 05:54:46;;;;;;;4.20;2.50;;;20.70;99.90;;;;;;5017337;28;20370;-72
2023/08/13 05:57:12;;;;;;;5.33;2.50;;;20.70;99.90;;;;;;4995965;28;20966;-73
2023/08/13 05:59:38;;;;;;;2.33;2.20;;;20.70;99.90;;;;;;5032137;28;20467;-72
2023/08/13 06:02:04;;;;;;;2.97;2.77;;;20.70;99.90;;;;;;5029991;28;20228;-72
2023/08/13 06:04:34;;;;;;;6.27;2.87;;;20.70;99.90;;;;;;4998369;28;20475;-73
2023/08/13 06:06:59;;;;;;;5.53;2.97;;;20.70;99.90;;;;;;4997301;28;20224;-72
2023/08/13 06:09:25;;;;;;;3.87;3.20;;;20.60;99.90;;;;;;5026849;28;21118;-73
2023/08/13 06:11:51;;;;;;;3.53;2.97;;;20.60;99.90;;;;;;5001149;28;20271;-73
2023/08/13 06:14:16;;;;;;;4.03;2.60;;;20.70;99.90;;;;;;5021982;28;20647;-73
2023/08/13 06:16:42;;;;;;;2.60;2.40;;;20.80;99.90;;;;;;5004253;28;20239;-73
2023/08/13 06:19:07;;;;;;;2.80;2.57;;;20.80;99.90;;;;;;5019450;28;20271;-73
2023/08/13 06:21:33;;;;;;;2.20;2.07;;;20.90;99.90;;;;;;5022935;28;20220;-73
2023/08/13 06:23:59;;;;;;;2.67;2.13;;;20.90;99.90;;;;;;5003571;28;20406;-73
2023/08/13 06:26:24;;;;;;;5.20;2.93;;;21.00;99.90;;;;;;5036973;28;20283;-73
2023/08/13 06:28:50;;;;;;;2.40;2.20;;;21.00;99.90;;;;;;5017611;28;20251;-73
2023/08/13 06:31:16;;;;;;;2.63;2.43;;;21.00;99.90;;;;;;5003034;28;20298;-73
2023/08/13 06:33:41;;;;;;;2.60;2.40;;;21.00;99.90;;;;;;5004394;28;20231;-73
2023/08/13 06:36:07;;;;;;;2.67;2.47;;;21.00;99.90;;;;;;5003897;28;20706;-73
2023/08/13 06:38:34;;;;;;;2.77;2.57;;;21.00;99.90;;;;;;5021813;28;20224;-73
2023/08/13 06:41:05;;;;;;;2.57;2.37;;;21.00;99.90;;;;;;5005828;28;20229;-73
2023/08/13 06:43:30;;;;;;;3.30;3.00;;;21.00;99.90;;;;;;5020503;28;20475;-73
2023/08/13 06:45:56;;;;;;;3.40;3.10;;;20.90;99.90;;;;;;5002975;28;20580;-72
2023/08/13 06:48:22;;;;;;;4.27;3.70;;;21.00;99.90;;;;;;5019548;28;20243;-73
2023/08/13 06:50:52;;;;;;;2.80;2.60;;;21.00;99.90;;;;;;5021015;28;20714;-73
2023/08/13 06:53:18;;;;;;;5.47;3.30;;;21.10;99.90;;;;;;5018915;28;20341;-73
2023/08/13 06:55:43;;;;;;;3.83;3.53;;;21.00;99.90;;;;;;5003691;28;20959;-72
2023/08/13 06:58:09;;;;;;;2.93;2.73;;;21.10;99.90;;;;;;5002393;28;20234;-73
2023/08/13 07:00:37;;;;;;;5.27;3.07;;;21.10;99.90;;;;;;5020062;28;20285;-72
2023/08/13 07:03:03;;;;;;;3.87;3.30;;;21.10;99.90;;;;;;5004253;28;20669;-74
2023/08/13 07:05:28;;;;;;;3.63;3.27;;;21.10;99.90;;;;;;5021663;28;20506;-73
2023/08/13 07:07:54;;;;;;;4.67;3.40;;;21.20;99.90;;;;;;5005393;28;20267;-72
2023/08/13 07:10:19;;;;;;;3.80;3.43;;;21.20;99.90;;;;;;5018940;28;20238;-73
2023/08/13 07:12:45;;;;;;;4.10;3.70;;;21.30;99.90;;;;;;5022736;28;20310;-73
2023/08/13 07:15:11;;;;;;;4.40;4.00;;;21.30;99.90;;;;;;5001472;28;20632;-73
2023/08/13 07:17:36;;;;;;;4.20;3.70;;;21.30;99.90;;;;;;5018858;28;20262;-73
2023/08/13 07:20:05;;;;;;;4.73;3.80;;;21.30;99.90;;;;;;5003283;28;20914;-73
2023/08/13 07:22:31;;;;;;;4.93;4.00;;;21.30;99.90;;;;;;5018829;28;20220;-73
2023/08/13 07:24:56;;;;;;;6.93;4.40;;;21.30;99.90;;;;;;5002621;28;20911;-73
2023/08/13 07:27:23;;;;;;;5.63;3.80;;;21.30;99.90;;;;;;5037235;28;20646;-73
2023/08/13 07:29:48;;;;;;;4.13;3.73;;;21.30;99.90;;;;;;5037378;28;20786;-73
2023/08/13 07:32:14;;;;;;;4.63;4.03;;;21.40;99.90;;;;;;5000320;28;20513;-73
2023/08/13 07:34:39;;;;;;;4.50;3.70;;;21.30;99.90;;;;;;5003946;28;20891;-73
2023/08/13 07:37:06;;;;;;;4.67;4.10;;;21.40;99.90;;;;;;5019766;28;20796;-73
2023/08/13 07:39:31;;;;;;;6.77;4.40;;;21.50;99.90;;;;;;5001838;28;20239;-73
2023/08/13 07:41:57;;;;;;;4.50;4.10;;;21.50;99.90;;;;;;5018876;28;20455;-73
2023/08/13 07:44:24;;;;;;;5.90;4.30;;;21.50;99.90;;;;;;5001323;28;20692;-73
2023/08/13 07:46:50;;;;;;;4.43;4.00;;;21.60;99.90;;;;;;5004496;28;20330;-73
2023/08/13 07:49:16;;;;;;;6.07;4.57;;;21.60;99.90;;;;;;5001044;28;20490;-73
2023/08/13 07:51:42;;;;;;;3.57;3.27;;;21.70;99.90;;;;;;5002519;28;20488;-73
2023/08/13 07:54:08;;;;;;;5.27;4.50;;;21.70;99.90;;;;;;5020037;28;20451;-73
2023/08/13 07:56:33;;;;;;;3.77;3.30;;;21.80;99.90;;;;;;5002530;28;20240;-73
2023/08/13 07:58:59;;;;;;;5.50;4.43;;;21.80;99.90;;;;;;5019943;28;20255;-73
2023/08/13 08:01:28;;;;;;;6.63;4.30;;;21.90;99.90;;;;;;5017281;28;20248;-73
2023/08/13 08:03:54;;;;;;;4.03;3.50;;;22.10;99.90;;;;;;5002640;28;20788;-73
2023/08/13 08:06:21;;;;;;;3.90;3.50;;;22.10;99.90;;;;;;5000124;28;20562;-73
2023/08/13 08:08:46;;;;;;;3.80;3.43;;;22.10;99.90;;;;;;5016418;28;20701;-73
2023/08/13 08:11:12;;;;;;;3.63;3.33;;;22.20;99.90;;;;;;4999886;28;20485;-73
2023/08/13 08:13:38;;;;;;;3.67;3.37;;;22.30;99.90;;;;;;5004046;28;20223;-73
2023/08/13 08:16:04;;;;;;;3.53;3.23;;;22.30;99.90;;;;;;5017799;28;20238;-73
2023/08/13 08:18:29;;;;;;;4.23;3.03;;;22.40;99.90;;;;;;5018105;28;20336;-73
2023/08/13 08:20:55;;;;;;;9.23;4.23;;;22.50;99.90;;;;;;5001008;28;20224;-73
2023/08/13 08:23:21;;;;;;;5.93;4.10;;;22.60;99.90;;;;;;5001742;28;20244;-73
2023/08/13 08:25:46;;;;;;;3.63;3.33;;;22.60;99.90;;;;;;5001700;28;20946;-73
2023/08/13 08:28:12;;;;;;;5.70;3.57;;;22.70;99.90;;;;;;4998380;28;20682;-73
2023/08/13 08:30:40;;;;;;;5.93;3.40;;;22.80;99.90;;;;;;5033724;28;20847;-73
2023/08/13 08:33:06;;;;;;;4.10;3.50;;;22.80;99.90;;;;;;5001847;28;20782;-73
2023/08/13 08:35:33;;;;;;;3.60;3.30;;;22.90;99.90;;;;;;5036877;28;20477;-75
2023/08/13 08:37:59;;;;;;;3.83;3.43;;;22.90;99.90;;;;;;5004105;28;20220;-73
2023/08/13 08:40:26;;;;;;;3.67;3.37;;;23.00;99.90;;;;;;5008812;28;20451;-74
2023/08/13 08:42:52;;;;;;;5.00;3.80;;;23.00;99.90;;;;;;5018060;28;20542;-74
2023/08/13 08:45:21;;;;;;;6.73;3.57;;;23.10;99.90;;;;;;5015927;28;21056;-74
2023/08/13 08:47:50;;;;;;;4.97;3.40;;;23.20;99.90;;;;;;5014137;28;20211;-73
2023/08/13 08:50:16;;;;;;;3.53;3.23;;;23.30;99.90;;;;;;5015820;28;20461;-74
2023/08/13 08:52:43;;;;;;;3.53;2.73;;;23.40;99.90;;;;;;5019668;28;20455;-73
2023/08/13 08:55:11;;;;;;;3.70;3.40;;;23.40;99.90;;;;;;5020173;28;20465;-74
2023/08/13 08:57:38;;;;;;;6.23;3.50;;;23.50;99.90;;;;;;5017556;28;20491;-73
2023/08/13 09:00:05;;;;;;;3.63;3.33;;;23.50;99.90;;;;;;5018702;28;20453;-73
2023/08/13 09:02:31;;;;;;;3.67;3.33;;;23.50;99.90;;;;;;5018138;28;20541;-74
2023/08/13 09:04:57;;;;;;;5.47;4.40;;;23.50;99.90;;;;;;5020651;28;20465;-73
2023/08/13 09:07:32;;;;;;;6.83;6.20;;;23.60;99.90;;;;;;5018556;28;20222;-74
2023/08/13 09:10:02;;;;;;;7.67;6.97;;;23.60;99.90;;;;;;5009251;28;20468;-73
2023/08/13 09:12:34;;;;;;;6.57;5.97;;;23.60;99.90;;;;;;5035214;28;20994;-74
2023/08/13 09:15:03;;;;;;;5.13;4.00;;;23.60;99.90;;;;;;5006645;28;20463;-73
2023/08/13 09:17:30;;;;;;;6.23;3.77;;;23.70;99.90;;;;;;4985886;28;21095;-74
2023/08/13 09:19:56;;;;;;;5.83;3.93;;;23.80;99.90;;;;;;4986442;28;21067;-73
2023/08/13 09:22:22;;;;;;;4.63;4.23;;;23.80;99.90;;;;;;5006111;28;20461;-73
2023/08/13 09:24:48;;;;;;;3.57;3.27;;;23.90;99.90;;;;;;5007218;28;20465;-73
2023/08/13 09:27:15;;;;;;;2.90;2.70;;;24.00;99.90;;;;;;5038083;28;20236;-74
2023/08/13 09:29:41;;;;;;;3.30;3.00;;;24.00;99.90;;;;;;5006299;28;20468;-74
2023/08/13 09:32:07;;;;;;;3.23;2.93;;;23.90;99.90;;;;;;5039206;28;21178;-74
2023/08/13 09:34:35;;;;;;;3.70;3.10;;;24.00;99.90;;;;;;5021998;28;20454;-74
2023/08/13 09:37:02;;;;;;;4.03;2.97;;;24.10;99.90;;;;;;5023194;28;20300;-73
2023/08/13 09:39:30;;;;;;;2.90;2.70;;;24.10;99.90;;;;;;5022127;28;20442;-73
2023/08/13 09:41:56;;;;;;;4.40;2.77;;;24.20;99.90;;;;;;5023419;28;21039;-73
2023/08/13 09:44:27;;;;;;;3.03;2.60;;;24.20;99.90;;;;;;5020950;28;20454;-73
2023/08/13 09:47:03;;;;;;;4.20;2.80;;;24.30;99.90;;;;;;5038544;28;20216;-74
2023/08/13 09:49:33;;;;;;;3.27;2.97;;;24.30;99.90;;;;;;5020391;28;20924;-73
2023/08/13 09:52:01;;;;;;;5.77;3.00;;;24.40;99.90;;;;;;5038345;28;20470;-73
2023/08/13 09:54:38;;;;;;;3.87;2.93;;;24.50;99.90;;;;;;5021717;28;20991;-74
2023/08/13 09:57:06;;;;;;;4.37;2.80;;;24.40;99.90;;;;;;5041778;28;20473;-74
2023/08/13 09:59:34;;;;;;;5.80;2.90;;;24.40;99.90;;;;;;5022961;28;20481;-74
2023/08/13 10:02:00;;;;;;;3.40;2.83;;;24.50;99.90;;;;;;5023648;28;20465;-73
2023/08/13 10:04:26;;;;;;;3.83;2.30;;;24.50;99.90;;;;;;5005160;28;20591;-73
2023/08/13 10:06:54;;;;;;;4.40;2.70;;;24.50;99.90;;;;;;5022031;28;20461;-73
2023/08/13 10:09:21;;;;;;;6.97;2.70;;;24.50;99.90;;;;;;5022417;28;20458;-74
2023/08/13 10:11:47;;;;;;;4.57;2.60;;;24.50;99.90;;;;;;5021213;28;20466;-74
2023/08/13 10:14:13;;;;;;;2.50;2.30;;;24.60;99.90;;;;;;5025095;28;20515;-73
2023/08/13 10:16:39;;;;;;;2.20;2.10;;;24.50;99.90;;;;;;5040084;28;20290;-73
2023/08/13 10:19:07;;;;;;;5.03;2.47;;;24.60;99.90;;;;;;5021031;28;20223;-74
2023/08/13 10:21:37;;;;;;;3.07;2.10;;;24.60;99.90;;;;;;5022870;28;20977;-73
2023/08/13 10:24:05;;;;;;;3.70;2.37;;;24.60;99.90;;;;;;5039418;28;20973;-74
2023/08/13 10:26:31;;;;;;;3.77;2.57;;;24.60;99.90;;;;;;5017983;28;20489;-74
2023/08/13 10:28:57;;;;;;;4.50;2.40;;;24.60;99.90;;;;;;5023012;28;20463;-74
2023/08/13 10:31:23;;;;;;;5.67;2.90;;;24.60;99.90;;;;;;5022439;28;20600;-73
2023/08/13 10:34:12;;;;;;;2.63;2.30;;;24.60;99.90;;;;;;5023132;28;20226;-74
2023/08/13 10:36:56;;;;;;;4.20;2.27;;;24.60;99.90;;;;;;5021032;28;20258;-73
2023/08/13 10:39:37;;;;;;;2.70;2.50;;;24.80;99.90;;;;;;5004842;28;20469;-74
2023/08/13 10:42:36;;;;;;;2.27;2.17;;;24.80;99.90;;;;;;5007169;28;20531;-73
2023/08/13 10:45:13;;;;;;;3.87;2.50;;;24.80;99.90;;;;;;5034678;28;20457;-74
2023/08/13 10:47:57;;;;;;;2.80;2.20;;;25.00;99.90;;;;;;5023722;28;20465;-74
2023/08/13 10:50:26;;;;;;;3.87;2.77;;;25.00;99.90;;;;;;5020143;28;23191;-74
2023/08/13 10:53:01;;;;;;;2.60;2.40;;;25.10;99.90;;;;;;5030223;28;20468;-73
2023/08/13 10:55:28;;;;;;;2.50;2.30;;;25.00;99.90;;;;;;5044418;28;20498;-74
2023/08/13 10:57:54;;;;;;;2.60;2.40;;;25.10;99.90;;;;;;5040102;28;20920;-74
2023/08/13 11:00:25;;;;;;;3.73;2.50;;;25.10;99.90;;;;;;5022923;28;20495;-74
2023/08/13 11:02:59;;;;;;;3.00;2.70;;;25.10;99.90;;;;;;5041517;28;20763;-74
2023/08/13 11:05:26;;;;;;;3.23;2.93;;;25.10;99.90;;;;;;5044529;28;20536;-74
2023/08/13 11:07:52;;;;;;;4.53;2.80;;;25.10;99.90;;;;;;5042505;28;20472;-73
2023/08/13 11:10:19;;;;;;;3.20;2.70;;;25.10;99.90;;;;;;5023506;28;20497;-73
2023/08/13 11:12:49;;;;;;;2.63;2.30;;;25.10;99.90;;;;;;5026639;28;20708;-74
2023/08/13 11:15:15;;;;;;;3.67;2.80;;;25.10;99.90;;;;;;5023897;28;20484;-74
2023/08/13 11:17:48;;;;;;;3.00;2.60;;;25.10;99.90;;;;;;5041862;28;20472;-74
2023/08/13 11:20:17;;;;;;;2.83;2.53;;;25.10;99.90;;;;;;5039589;28;20477;-74
2023/08/13 11:22:43;;;;;;;5.60;3.20;;;25.10;99.90;;;;;;5039473;28;20472;-74
2023/08/13 11:25:09;;;;;;;5.00;2.40;;;25.20;99.90;;;;;;5024861;28;20469;-74
2023/08/13 11:27:35;;;;;;;3.20;2.53;;;25.10;99.90;;;;;;5024873;28;20465;-73
2023/08/13 11:30:01;;;;;;;3.03;2.23;;;25.00;99.90;;;;;;5043525;28;21076;-74
2023/08/13 11:32:27;;;;;;;3.00;2.50;;;25.00;99.90;;;;;;5022820;28;20461;-74
2023/08/13 11:34:53;;;;;;;3.40;2.50;;;25.10;99.90;;;;;;5022470;28;20230;-74
2023/08/13 11:37:19;;;;;;;2.73;2.20;;;25.10;99.90;;;;;;5040323;28;20215;-74
2023/08/13 11:39:45;;;;;;;5.13;2.17;;;25.10;99.90;;;;;;5039640;28;20223;-74
2023/08/13 11:42:10;;;;;;;2.33;2.00;;;25.10;99.90;;;;;;5021141;28;20800;-74
2023/08/13 11:44:37;;;;;;;2.20;2.00;;;25.10;99.90;;;;;;5021138;28;20463;-73
2023/08/13 11:47:06;;;;;;;2.70;2.33;;;25.10;99.90;;;;;;5024194;28;20309;-74
2023/08/13 11:49:41;;;;;;;2.83;2.00;;;25.10;99.90;;;;;;5022038;28;20464;-74
2023/08/13 11:52:07;;;;;;;3.30;2.10;;;25.10;99.90;;;;;;5022923;28;20466;-74
2023/08/13 11:54:34;;;;;;;3.13;1.67;;;25.20;99.90;;;;;;5024777;28;20524;-74
2023/08/13 11:57:01;;;;;;;2.03;1.93;;;25.20;99.90;;;;;;5025348;28;20501;-74
2023/08/13 11:59:29;;;;;;;2.27;2.07;;;25.20;99.90;;;;;;5022358;28;20536;-74
2023/08/13 12:01:56;;;;;;;4.13;2.10;;;25.20;99.90;;;;;;5038938;28;20457;-74
2023/08/13 12:04:30;;;;;;;2.93;1.67;;;25.20;99.90;;;;;;5039239;28;20458;-74
2023/08/13 12:06:56;;;;;;;3.13;1.67;;;25.30;99.90;;;;;;5023792;28;20484;-75
2023/08/13 12:09:22;;;;;;;3.80;2.07;;;25.30;99.90;;;;;;5023652;28;20480;-74
2023/08/13 12:11:47;;;;;;;2.23;2.03;;;25.20;99.90;;;;;;5040041;28;20222;-74
2023/08/13 12:14:13;;;;;;;2.13;1.80;;;25.40;99.90;;;;;;5040536;28;20261;-75
2023/08/13 12:16:39;;;;;;;2.63;2.00;;;25.40;99.90;;;;;;5022747;28;20237;-75
2023/08/13 12:19:08;;;;;;;1.93;1.80;;;25.40;99.90;;;;;;5022942;28;20693;-74
2023/08/13 12:21:35;;;;;;;11.63;3.53;;;25.50;99.90;;;;;;5041066;28;20225;-75
2023/08/13 12:24:05;;;;;;;2.23;2.03;;;25.60;99.90;;;;;;5024521;28;20465;-75
2023/08/13 12:26:32;;;;;;;2.13;1.93;;;25.80;99.90;;;;;;5037323;28;20477;-74
2023/08/13 12:28:58;;;;;;;2.80;1.60;;;25.80;99.90;;;;;;5022150;28;20476;-74
2023/08/13 12:31:27;;;;;;;1.77;1.67;;;25.80;99.90;;;;;;5022378;28;20516;-74
2023/08/13 12:33:53;;;;;;;3.17;2.00;;;25.90;99.90;;;;;;5020386;28;20467;-74
2023/08/13 12:36:19;;;;;;;2.20;2.00;;;26.20;99.90;;;;;;5036209;28;20516;-74
2023/08/13 12:38:45;;;;;;;1.93;1.70;;;26.30;99.90;;;;;;5036650;28;20449;-75
2023/08/13 12:41:11;;;;;;;3.40;2.10;;;26.50;99.90;;;;;;5022607;28;21146;-74
2023/08/13 12:43:37;;;;;;;1.77;1.60;;;26.80;99.90;;;;;;5015615;28;20345;-75
2023/08/13 12:46:05;;;;;;;3.80;1.97;;;26.70;99.90;;;;;;5036320;28;20227;-75
2023/08/13 12:48:32;;;;;;;2.87;2.40;;;26.80;99.90;;;;;;5015550;28;20464;-74